createdAt,value
2022-12-13T00:00:41.314Z,28.30
2022-12-13T00:01:41.307Z,27.00
2022-12-13T00:02:41.355Z,25.50
2022-12-13T00:03:41.319Z,27.90
2022-12-13T00:04:41.277Z,27.70
2022-12-13T00:05:41.268Z,26.30
2022-12-13T00:06:41.262Z,25.20
2022-12-13T00:07:41.256Z,26.40
2022-12-13T00:08:41.258Z,24.90
2022-12-13T00:09:41.235Z,27.20
2022-12-13T00:10:41.220Z,26.00
2022-12-13T00:11:41.218Z,27.30
2022-12-13T00:12:41.206Z,26.70
2022-12-13T00:13:41.201Z,27.50
2022-12-13T00:14:41.187Z,27.30
2022-12-13T00:15:41.177Z,26.60
2022-12-13T00:16:41.307Z,26.10
2022-12-13T00:17:41.157Z,28.10
2022-12-13T00:18:41.149Z,27.80
2022-12-13T00:19:41.340Z,27.80
2022-12-13T00:20:41.126Z,28.20
2022-12-13T00:21:41.122Z,27.40
2022-12-13T00:22:41.109Z,28.70
2022-12-13T00:23:41.104Z,28.80
2022-12-13T00:24:45.881Z,31.10
2022-12-13T00:25:41.083Z,26.20
2022-12-13T00:26:41.080Z,26.70
2022-12-13T00:27:41.066Z,28.40
2022-12-13T00:28:41.054Z,27.40
2022-12-13T00:29:41.045Z,27.80
2022-12-13T00:30:41.097Z,28.00
2022-12-13T00:32:41.016Z,25.10
2022-12-13T00:33:41.011Z,26.80
2022-12-13T00:34:41.003Z,26.30
2022-12-13T00:35:40.991Z,25.80
2022-12-13T00:36:40.982Z,26.60
2022-12-13T00:37:40.971Z,24.90
2022-12-13T00:38:40.963Z,26.20
2022-12-13T00:39:40.960Z,25.80
2022-12-13T00:40:40.964Z,27.80
2022-12-13T00:41:40.943Z,27.20
2022-12-13T00:42:40.928Z,26.90
2022-12-13T00:43:40.916Z,27.40
2022-12-13T00:44:40.906Z,26.20
2022-12-13T00:45:40.943Z,25.70
2022-12-13T00:46:40.898Z,26.20
2022-12-13T00:47:40.895Z,27.20
2022-12-13T00:48:40.873Z,26.20
2022-12-13T00:49:40.868Z,26.80
2022-12-13T00:50:40.848Z,26.80
2022-12-13T00:51:40.846Z,27.60
2022-12-13T00:52:40.831Z,28.50
2022-12-13T00:53:40.838Z,26.30
2022-12-13T00:54:40.811Z,29.50
2022-12-13T00:55:40.805Z,27.30
2022-12-13T00:56:40.812Z,26.30
2022-12-13T00:57:40.785Z,26.10
2022-12-13T00:58:40.774Z,26.50
2022-12-13T00:59:40.767Z,24.40
2022-12-13T01:00:40.755Z,26.10
2022-12-13T01:01:40.814Z,26.80
2022-12-13T01:02:40.735Z,26.50
2022-12-13T01:03:40.810Z,27.20
2022-12-13T01:04:40.722Z,25.90
2022-12-13T01:06:13.596Z,26.60
2022-12-13T01:06:40.700Z,25.40
2022-12-13T01:07:40.696Z,25.70
2022-12-13T01:08:40.680Z,25.60
2022-12-13T01:09:40.672Z,25.40
2022-12-13T01:10:40.661Z,25.10
2022-12-13T01:11:40.655Z,24.70
2022-12-13T01:12:40.663Z,26.70
2022-12-13T01:13:40.634Z,24.70
2022-12-13T01:14:40.623Z,25.10
2022-12-13T01:15:40.620Z,25.30
2022-12-13T01:16:40.709Z,27.70
2022-12-13T01:17:40.596Z,26.00
2022-12-13T01:18:40.588Z,26.80
2022-12-13T01:19:40.578Z,25.20
2022-12-13T01:20:40.916Z,25.50
2022-12-13T01:21:40.558Z,24.90
2022-12-13T01:22:40.546Z,24.50
2022-12-13T01:23:40.539Z,24.90
2022-12-13T01:24:40.531Z,26.60
2022-12-13T01:25:40.520Z,27.00
2022-12-13T01:26:40.514Z,27.50
2022-12-13T01:27:40.501Z,28.20
2022-12-13T01:28:40.519Z,27.50
2022-12-13T01:29:40.486Z,27.80
2022-12-13T01:30:40.523Z,27.40
2022-12-13T01:31:40.465Z,27.00
2022-12-13T01:32:40.454Z,26.50
2022-12-13T01:33:40.448Z,29.10
2022-12-13T01:34:40.440Z,27.10
2022-12-13T01:35:40.426Z,26.70
2022-12-13T01:36:40.417Z,24.80
2022-12-13T01:37:40.410Z,26.80
2022-12-13T01:38:40.397Z,26.70
2022-12-13T01:39:40.389Z,25.00
2022-12-13T01:40:40.384Z,26.40
2022-12-13T01:41:40.374Z,26.90
2022-12-13T01:42:40.358Z,26.10
2022-12-13T01:43:40.351Z,24.20
2022-12-13T01:44:40.356Z,25.70
2022-12-13T01:45:40.335Z,24.70
2022-12-13T01:46:40.321Z,23.90
2022-12-13T01:47:40.315Z,25.00
2022-12-13T01:48:40.304Z,25.50
2022-12-13T01:49:40.296Z,24.10
2022-12-13T01:50:40.286Z,25.40
2022-12-13T01:51:40.276Z,23.40
2022-12-13T01:52:40.264Z,24.20
2022-12-13T01:53:40.256Z,22.80
2022-12-13T01:54:46.589Z,24.60
2022-12-13T01:55:41.526Z,24.20
2022-12-13T01:56:40.230Z,21.80
2022-12-13T01:57:45.363Z,23.90
2022-12-13T01:58:40.208Z,26.40
2022-12-13T01:59:40.203Z,25.60
2022-12-13T02:00:40.960Z,25.30
2022-12-13T02:01:40.237Z,28.90
2022-12-13T02:02:40.171Z,25.90
2022-12-13T02:03:40.160Z,26.10
2022-12-13T02:04:44.019Z,24.30
2022-12-13T02:05:40.159Z,24.20
2022-12-13T02:06:40.131Z,24.70
2022-12-13T02:07:40.123Z,25.50
2022-12-13T02:08:40.110Z,30.60
2022-12-13T02:09:40.103Z,27.40
2022-12-13T02:10:40.091Z,27.30
2022-12-13T02:11:40.087Z,26.80
2022-12-13T02:12:40.076Z,27.50
2022-12-13T02:13:40.073Z,26.90
2022-12-13T02:14:40.053Z,27.10
2022-12-13T02:15:40.114Z,26.60
2022-12-13T02:16:40.058Z,27.10
2022-12-13T02:17:45.548Z,27.20
2022-12-13T02:18:40.020Z,25.90
2022-12-13T02:19:40.010Z,25.30
2022-12-13T02:20:39.995Z,25.30
2022-12-13T02:21:39.992Z,25.90
2022-12-13T02:22:39.980Z,24.80
2022-12-13T02:23:39.973Z,25.90
2022-12-13T02:24:39.960Z,26.00
2022-12-13T02:25:40.149Z,26.00
2022-12-13T02:26:39.938Z,26.80
2022-12-13T02:27:42.545Z,26.00
2022-12-13T02:28:39.925Z,24.40
2022-12-13T02:29:39.912Z,30.00
2022-12-13T02:30:39.904Z,28.20
2022-12-13T02:31:39.978Z,25.50
2022-12-13T02:32:39.897Z,28.20
2022-12-13T02:33:39.873Z,27.70
2022-12-13T02:34:39.867Z,29.80
2022-12-13T02:35:39.856Z,24.30
2022-12-13T02:36:39.846Z,26.00
2022-12-13T02:37:39.836Z,26.40
2022-12-13T02:38:39.827Z,28.70
2022-12-13T02:39:39.817Z,26.70
2022-12-13T02:40:39.811Z,26.10
2022-12-13T02:41:39.801Z,27.00
2022-12-13T02:42:39.787Z,26.70
2022-12-13T02:43:45.449Z,26.20
2022-12-13T02:44:39.772Z,26.30
2022-12-13T02:45:39.763Z,28.60
2022-12-13T02:46:39.868Z,27.80
2022-12-13T02:47:39.740Z,26.80
2022-12-13T02:48:39.747Z,26.40
2022-12-13T02:49:39.724Z,27.00
2022-12-13T02:50:39.709Z,27.20
2022-12-13T02:51:39.700Z,25.80
2022-12-13T02:52:39.691Z,26.10
2022-12-13T02:53:39.681Z,27.30
2022-12-13T02:54:42.603Z,25.70
2022-12-13T02:55:39.663Z,31.00
2022-12-13T02:56:39.651Z,27.70
2022-12-13T02:57:39.644Z,30.40
2022-12-13T02:58:39.633Z,29.00
2022-12-13T02:59:39.627Z,28.90
2022-12-13T03:00:39.612Z,28.00
2022-12-13T03:01:40.473Z,26.80
2022-12-13T03:02:39.740Z,29.50
2022-12-13T03:03:39.624Z,29.70
2022-12-13T03:04:39.590Z,26.70
2022-12-13T03:05:39.563Z,27.70
2022-12-13T03:06:39.552Z,28.70
2022-12-13T03:07:39.547Z,27.50
2022-12-13T03:08:39.534Z,29.60
2022-12-13T03:09:39.529Z,29.50
2022-12-13T03:10:39.517Z,30.00
2022-12-13T03:11:39.508Z,25.80
2022-12-13T03:12:39.503Z,27.20
2022-12-13T03:13:39.489Z,26.90
2022-12-13T03:14:39.476Z,27.40
2022-12-13T03:15:39.519Z,28.00
2022-12-13T03:16:39.460Z,27.00
2022-12-13T03:17:39.450Z,26.80
2022-12-13T03:18:39.437Z,27.30
2022-12-13T03:19:39.429Z,27.80
2022-12-13T03:20:39.437Z,26.50
2022-12-13T03:21:42.539Z,27.80
2022-12-13T03:22:39.402Z,27.10
2022-12-13T03:23:39.391Z,27.70
2022-12-13T03:24:39.379Z,27.50
2022-12-13T03:25:39.372Z,28.70
2022-12-13T03:26:39.362Z,27.00
2022-12-13T03:27:39.353Z,30.20
2022-12-13T03:28:39.342Z,28.50
2022-12-13T03:29:39.333Z,30.40
2022-12-13T03:30:39.323Z,28.80
2022-12-13T03:31:39.384Z,31.00
2022-12-13T03:32:39.301Z,25.40
2022-12-13T03:33:39.298Z,27.20
2022-12-13T03:34:43.795Z,28.90
2022-12-13T03:35:44.618Z,29.90
2022-12-13T03:36:39.282Z,28.30
2022-12-13T03:37:39.254Z,27.30
2022-12-13T03:38:39.242Z,29.80
2022-12-13T03:39:39.233Z,29.50
2022-12-13T03:40:39.223Z,30.40
2022-12-13T03:41:39.216Z,29.10
2022-12-13T03:42:39.208Z,26.10
2022-12-13T03:43:39.195Z,29.10
2022-12-13T03:44:39.183Z,28.10
2022-12-13T03:45:39.176Z,27.70
2022-12-13T03:46:39.207Z,26.30
2022-12-13T03:47:39.159Z,28.20
2022-12-13T03:48:39.144Z,27.50
2022-12-13T03:49:39.136Z,28.30
2022-12-13T03:50:39.125Z,28.70
2022-12-13T03:51:39.122Z,26.20
2022-12-13T03:52:39.132Z,26.80
2022-12-13T03:53:39.097Z,30.00
2022-12-13T03:54:39.088Z,28.30
2022-12-13T03:55:39.079Z,27.80
2022-12-13T03:56:39.066Z,27.60
2022-12-13T03:57:39.063Z,28.20
2022-12-13T03:58:39.058Z,28.70
2022-12-13T03:59:39.055Z,29.50
2022-12-13T04:00:39.032Z,29.30
2022-12-13T04:01:39.055Z,28.50
2022-12-13T04:02:39.045Z,29.60
2022-12-13T04:03:39.006Z,30.70
2022-12-13T04:04:38.997Z,31.10
2022-12-13T04:05:38.982Z,29.70
2022-12-13T04:06:38.973Z,28.50
2022-12-13T04:07:38.961Z,29.50
2022-12-13T04:08:39.150Z,29.00
2022-12-13T04:09:38.942Z,26.40
2022-12-13T04:10:38.941Z,27.10
2022-12-13T04:11:43.280Z,28.80
2022-12-13T04:12:38.912Z,29.30
2022-12-13T04:13:38.900Z,29.10
2022-12-13T04:14:38.893Z,27.70
2022-12-13T04:15:38.888Z,28.20
2022-12-13T04:16:38.943Z,28.50
2022-12-13T04:17:38.862Z,29.50
2022-12-13T04:18:38.855Z,30.00
2022-12-13T04:19:38.844Z,27.60
2022-12-13T04:20:38.839Z,28.10
2022-12-13T04:21:38.830Z,30.60
2022-12-13T04:22:38.815Z,27.80
2022-12-13T04:23:38.802Z,30.50
2022-12-13T04:24:38.815Z,29.60
2022-12-13T04:25:38.783Z,29.20
2022-12-13T04:26:38.778Z,27.00
2022-12-13T04:27:38.765Z,27.80
2022-12-13T04:28:38.763Z,27.90
2022-12-13T04:29:38.743Z,26.10
2022-12-13T04:30:38.936Z,28.30
2022-12-13T04:31:38.742Z,29.10
2022-12-13T04:32:38.716Z,28.50
2022-12-13T04:33:38.704Z,31.40
2022-12-13T04:34:38.697Z,29.00
2022-12-13T04:35:38.687Z,29.60
2022-12-13T04:36:38.679Z,32.10
2022-12-13T04:37:38.665Z,31.00
2022-12-13T04:38:38.661Z,32.80
2022-12-13T04:39:38.650Z,29.40
2022-12-13T04:40:38.660Z,32.00
2022-12-13T04:41:38.624Z,31.80
2022-12-13T04:42:38.617Z,33.90
2022-12-13T04:43:38.611Z,30.90
2022-12-13T04:44:41.155Z,30.00
2022-12-13T04:45:38.656Z,30.70
2022-12-13T04:46:38.581Z,32.00
2022-12-13T04:47:38.571Z,29.50
2022-12-13T04:48:38.557Z,31.30
2022-12-13T04:49:38.547Z,31.30
2022-12-13T04:50:38.538Z,28.20
2022-12-13T04:51:38.530Z,29.00
2022-12-13T04:52:38.518Z,29.20
2022-12-13T04:53:38.507Z,28.50
2022-12-13T04:54:38.499Z,30.40
2022-12-13T04:55:38.488Z,28.20
2022-12-13T04:56:38.497Z,27.80
2022-12-13T04:57:38.468Z,26.90
2022-12-13T04:58:38.461Z,24.70
2022-12-13T04:59:38.449Z,30.50
2022-12-13T05:00:38.507Z,29.80
2022-12-13T05:01:38.429Z,30.30
2022-12-13T05:02:38.440Z,29.10
2022-12-13T05:03:38.408Z,32.60
2022-12-13T05:04:38.402Z,32.20
2022-12-13T05:05:38.393Z,33.00
2022-12-13T05:06:38.382Z,33.10
2022-12-13T05:07:42.386Z,31.20
2022-12-13T05:08:38.362Z,34.20
2022-12-13T05:09:38.350Z,29.60
2022-12-13T05:10:38.377Z,31.00
2022-12-13T05:11:38.331Z,28.00
2022-12-13T05:12:38.365Z,30.70
2022-12-13T05:13:38.315Z,29.50
2022-12-13T05:14:38.305Z,28.60
2022-12-13T05:15:38.291Z,27.90
2022-12-13T05:16:38.368Z,27.00
2022-12-13T05:17:38.274Z,28.70
2022-12-13T05:18:38.267Z,28.90
2022-12-13T05:19:38.253Z,29.20
2022-12-13T05:20:38.247Z,29.60
2022-12-13T05:21:38.233Z,30.30
2022-12-13T05:22:38.224Z,30.50
2022-12-13T05:23:38.213Z,29.60
2022-12-13T05:24:38.203Z,32.70
2022-12-13T05:25:38.200Z,32.00
2022-12-13T05:26:38.185Z,30.20
2022-12-13T05:27:38.174Z,31.30
2022-12-13T05:28:38.186Z,29.40
2022-12-13T05:29:38.158Z,32.70
2022-12-13T05:30:38.498Z,30.10
2022-12-13T05:31:38.183Z,32.20
2022-12-13T05:32:44.194Z,31.60
2022-12-13T05:33:38.113Z,32.40
2022-12-13T05:34:38.110Z,32.10
2022-12-13T05:35:38.093Z,31.80
2022-12-13T05:36:38.084Z,30.50
2022-12-13T05:37:38.083Z,33.10
2022-12-13T05:38:38.066Z,31.60
2022-12-13T05:39:38.057Z,30.60
2022-12-13T05:40:38.048Z,30.90
2022-12-13T05:41:38.036Z,30.50
2022-12-13T05:42:38.027Z,30.70
2022-12-13T05:43:42.126Z,30.00
2022-12-13T05:44:38.032Z,30.90
2022-12-13T05:45:38.023Z,31.10
2022-12-13T05:46:41.472Z,28.00
2022-12-13T05:47:37.978Z,30.10
2022-12-13T05:48:37.984Z,30.40
2022-12-13T05:49:39.661Z,30.60
2022-12-13T05:50:37.950Z,31.30
2022-12-13T05:51:37.935Z,27.70
2022-12-13T05:52:37.937Z,28.50
2022-12-13T05:53:37.917Z,31.30
2022-12-13T05:54:37.910Z,30.60
2022-12-13T05:55:37.904Z,29.60
2022-12-13T05:56:37.890Z,28.60
2022-12-13T05:57:37.875Z,30.40
2022-12-13T05:58:37.868Z,29.00
2022-12-13T05:59:37.859Z,28.50
2022-12-13T06:00:37.867Z,30.60
2022-12-13T06:01:37.838Z,30.40
2022-12-13T06:02:37.940Z,30.50
2022-12-13T06:03:38.076Z,28.10
2022-12-13T06:04:37.808Z,30.10
2022-12-13T06:05:37.799Z,31.80
2022-12-13T06:06:37.791Z,28.10
2022-12-13T06:07:37.779Z,28.80
2022-12-13T06:08:37.858Z,31.10
2022-12-13T06:09:39.816Z,32.20
2022-12-13T06:10:37.783Z,30.90
2022-12-13T06:11:43.447Z,34.30
2022-12-13T06:12:37.729Z,31.40
2022-12-13T06:13:42.108Z,31.20
2022-12-13T06:14:37.716Z,33.50
2022-12-13T06:15:37.699Z,33.60
2022-12-13T06:16:37.783Z,30.20
2022-12-13T06:17:37.684Z,33.80
2022-12-13T06:18:37.676Z,32.60
2022-12-13T06:19:37.659Z,31.10
2022-12-13T06:20:37.654Z,31.10
2022-12-13T06:21:44.014Z,32.30
2022-12-13T06:22:37.632Z,31.40
2022-12-13T06:23:37.617Z,31.70
2022-12-13T06:24:37.891Z,33.10
2022-12-13T06:25:37.597Z,34.70
2022-12-13T06:26:37.589Z,32.20
2022-12-13T06:27:37.632Z,33.90
2022-12-13T06:28:37.572Z,31.50
2022-12-13T06:29:37.885Z,29.70
2022-12-13T06:30:37.606Z,31.40
2022-12-13T06:31:38.001Z,30.90
2022-12-13T06:32:42.538Z,32.50
2022-12-13T06:33:37.520Z,35.30
2022-12-13T06:34:37.516Z,34.00
2022-12-13T06:35:41.262Z,31.00
2022-12-13T06:36:37.488Z,31.70
2022-12-13T06:37:37.480Z,34.60
2022-12-13T06:38:43.429Z,33.20
2022-12-13T06:39:37.461Z,35.70
2022-12-13T06:40:37.457Z,32.10
2022-12-13T06:41:37.437Z,32.50
2022-12-13T06:42:37.428Z,31.30
2022-12-13T06:43:37.420Z,30.90
2022-12-13T06:44:37.415Z,33.00
2022-12-13T06:45:37.399Z,32.80
2022-12-13T06:46:37.425Z,33.60
2022-12-13T06:47:37.379Z,34.20
2022-12-13T06:48:37.395Z,33.80
2022-12-13T06:49:37.360Z,33.70
2022-12-13T06:50:37.351Z,35.00
2022-12-13T06:51:37.342Z,35.30
2022-12-13T06:52:37.329Z,35.10
2022-12-13T06:53:37.322Z,32.90
2022-12-13T06:54:37.310Z,31.80
2022-12-13T06:55:37.300Z,33.00
2022-12-13T06:56:37.298Z,34.80
2022-12-13T06:57:37.278Z,34.90
2022-12-13T06:58:37.270Z,33.90
2022-12-13T06:59:37.266Z,33.20
2022-12-13T07:00:48.275Z,33.50
2022-12-13T07:01:38.004Z,33.50
2022-12-13T07:02:37.439Z,32.50
2022-12-13T07:03:37.252Z,35.30
2022-12-13T07:04:37.382Z,32.70
2022-12-13T07:05:37.217Z,34.20
2022-12-13T07:06:37.212Z,34.90
2022-12-13T07:07:37.183Z,34.90
2022-12-13T07:08:37.254Z,32.50
2022-12-13T07:09:37.162Z,35.70
2022-12-13T07:10:37.155Z,35.80
2022-12-13T07:11:37.142Z,36.40
2022-12-13T07:12:37.132Z,34.70
2022-12-13T07:13:37.121Z,34.00
2022-12-13T07:14:40.420Z,34.50
2022-12-13T07:15:37.187Z,35.30
2022-12-13T07:16:37.100Z,34.50
2022-12-13T07:17:37.083Z,35.30
2022-12-13T07:18:37.072Z,37.00
2022-12-13T07:19:37.062Z,33.50
2022-12-13T07:20:37.085Z,37.40
2022-12-13T07:21:37.041Z,35.20
2022-12-13T07:22:41.575Z,35.80
2022-12-13T07:23:37.024Z,37.60
2022-12-13T07:24:37.015Z,44.40
2022-12-13T07:25:37.006Z,44.30
2022-12-13T07:26:36.996Z,39.80
2022-12-13T07:27:36.982Z,37.60
2022-12-13T07:28:36.976Z,39.20
2022-12-13T07:29:36.961Z,40.10
2022-12-13T07:30:41.097Z,39.30
2022-12-13T07:31:36.990Z,35.30
2022-12-13T07:32:36.932Z,38.20
2022-12-13T07:33:36.923Z,39.50
2022-12-13T07:34:36.914Z,38.40
2022-12-13T07:35:37.790Z,36.00
2022-12-13T07:36:36.943Z,38.20
2022-12-13T07:37:36.889Z,38.40
2022-12-13T07:38:36.878Z,38.60
2022-12-13T07:39:36.866Z,37.50
2022-12-13T07:40:36.918Z,38.60
2022-12-13T07:41:36.848Z,36.80
2022-12-13T07:42:36.838Z,37.70
2022-12-13T07:43:36.823Z,38.70
2022-12-13T07:44:36.815Z,40.00
2022-12-13T07:45:36.804Z,40.30
2022-12-13T07:46:36.925Z,36.20
2022-12-13T07:47:36.787Z,36.70
2022-12-13T07:48:36.775Z,39.20
2022-12-13T07:49:36.768Z,36.50
2022-12-13T07:50:37.891Z,38.90
2022-12-13T07:51:36.744Z,38.50
2022-12-13T07:52:36.753Z,38.60
2022-12-13T07:53:36.722Z,36.10
2022-12-13T07:54:36.719Z,35.60
2022-12-13T07:55:36.707Z,42.00
2022-12-13T07:56:36.693Z,41.70
2022-12-13T07:57:36.686Z,42.10
2022-12-13T07:58:36.677Z,42.30
2022-12-13T07:59:36.665Z,39.30
2022-12-13T08:00:36.665Z,38.70
2022-12-13T08:01:36.771Z,39.30
2022-12-13T08:02:36.635Z,35.80
2022-12-13T08:03:36.624Z,37.30
2022-12-13T08:04:37.873Z,36.10
2022-12-13T08:05:38.473Z,35.80
2022-12-13T08:06:36.600Z,40.50
2022-12-13T08:07:36.586Z,38.60
2022-12-13T08:08:36.755Z,37.40
2022-12-13T08:09:36.565Z,39.80
2022-12-13T08:10:36.562Z,35.50
2022-12-13T08:11:36.547Z,37.10
2022-12-13T08:12:36.547Z,37.10
2022-12-13T08:13:36.527Z,36.30
2022-12-13T08:14:36.519Z,35.10
2022-12-13T08:15:36.509Z,39.30
2022-12-13T08:16:36.569Z,38.20
2022-12-13T08:17:36.496Z,36.10
2022-12-13T08:18:36.477Z,36.80
2022-12-13T08:19:36.477Z,35.40
2022-12-13T08:20:36.472Z,35.60
2022-12-13T08:22:36.440Z,36.60
2022-12-13T08:23:36.430Z,34.70
2022-12-13T08:24:36.434Z,37.50
2022-12-13T08:25:36.410Z,36.50
2022-12-13T08:26:36.399Z,35.30
2022-12-13T08:27:36.399Z,35.30
2022-12-13T08:28:36.377Z,32.70
2022-12-13T08:29:36.503Z,34.40
2022-12-13T08:30:36.360Z,33.50
2022-12-13T08:31:36.414Z,32.50
2022-12-13T08:32:36.350Z,34.50
2022-12-13T08:33:36.330Z,37.00
2022-12-13T08:34:36.325Z,32.70
2022-12-13T08:35:36.313Z,32.70
2022-12-13T08:36:36.748Z,32.90
2022-12-13T08:37:36.293Z,37.10
2022-12-13T08:38:36.280Z,35.00
2022-12-13T08:39:36.829Z,36.10
2022-12-13T08:40:36.261Z,34.60
2022-12-13T08:41:39.362Z,35.50
2022-12-13T08:42:36.241Z,33.70
2022-12-13T08:43:36.233Z,31.70
2022-12-13T08:44:36.221Z,34.40
2022-12-13T08:45:36.215Z,32.10
2022-12-13T08:46:36.239Z,32.70
2022-12-13T08:47:41.539Z,31.50
2022-12-13T08:48:36.238Z,34.30
2022-12-13T08:49:36.173Z,33.50
2022-12-13T08:50:36.167Z,32.30
2022-12-13T08:51:36.158Z,31.60
2022-12-13T08:52:40.688Z,30.60
2022-12-13T08:53:41.096Z,32.40
2022-12-13T08:54:36.129Z,30.40
2022-12-13T08:55:36.128Z,33.10
2022-12-13T08:56:36.147Z,32.00
2022-12-13T08:57:36.101Z,31.40
2022-12-13T08:58:36.087Z,30.60
2022-12-13T08:59:36.080Z,32.40
2022-12-13T09:00:36.637Z,30.80
2022-12-13T09:01:36.086Z,30.90
2022-12-13T09:02:37.976Z,32.60
2022-12-13T09:03:36.042Z,32.40
2022-12-13T09:04:36.059Z,32.10
2022-12-13T09:05:36.019Z,33.60
2022-12-13T09:06:36.006Z,34.90
2022-12-13T09:07:36.002Z,30.30
2022-12-13T09:08:36.065Z,33.90
2022-12-13T09:09:37.350Z,34.50
2022-12-13T09:10:38.593Z,30.50
2022-12-13T09:11:39.978Z,31.80
2022-12-13T09:12:41.600Z,31.60
2022-12-13T09:13:43.834Z,33.00
2022-12-13T09:14:35.932Z,30.80
2022-12-13T09:15:36.012Z,32.70
2022-12-13T09:16:36.392Z,31.90
2022-12-13T09:17:36.781Z,34.80
2022-12-13T09:18:36.041Z,31.00
2022-12-13T09:19:37.437Z,30.30
2022-12-13T09:20:41.453Z,29.60
2022-12-13T09:21:35.861Z,29.40
2022-12-13T09:22:35.852Z,30.40
2022-12-13T09:23:35.846Z,32.00
2022-12-13T09:24:37.111Z,29.20
2022-12-13T09:25:37.046Z,31.10
2022-12-13T09:26:37.797Z,28.60
2022-12-13T09:27:39.514Z,30.70
2022-12-13T09:28:35.794Z,27.50
2022-12-13T09:29:35.785Z,29.10
2022-12-13T09:30:35.777Z,28.70
2022-12-13T09:31:35.807Z,29.20
2022-12-13T09:32:35.758Z,29.10
2022-12-13T09:33:40.922Z,27.70
2022-12-13T09:34:35.799Z,29.80
2022-12-13T09:35:35.734Z,29.60
2022-12-13T09:36:35.737Z,30.10
2022-12-13T09:37:37.769Z,29.50
2022-12-13T09:38:35.913Z,29.60
2022-12-13T09:39:35.694Z,29.10
2022-12-13T09:40:37.549Z,29.40
2022-12-13T09:41:40.933Z,29.20
2022-12-13T09:42:35.659Z,28.40
2022-12-13T09:43:42.912Z,26.50
2022-12-13T09:44:45.254Z,24.70
2022-12-13T09:45:35.718Z,27.80
2022-12-13T09:46:44.561Z,27.70
2022-12-13T09:47:35.873Z,27.70
2022-12-13T09:48:35.604Z,26.50
2022-12-13T09:49:35.845Z,29.20
2022-12-13T09:50:38.598Z,27.30
2022-12-13T09:51:41.448Z,25.40
2022-12-13T09:52:35.584Z,26.10
2022-12-13T09:53:35.958Z,27.70
2022-12-13T09:54:36.530Z,28.10
2022-12-13T09:55:35.537Z,27.30
2022-12-13T09:56:35.528Z,26.70
2022-12-13T09:57:35.517Z,27.40
2022-12-13T09:58:35.507Z,27.20
2022-12-13T09:59:35.501Z,26.70
2022-12-13T10:00:35.503Z,28.70
2022-12-13T10:01:35.575Z,27.60
2022-12-13T10:02:35.581Z,26.10
2022-12-13T10:03:35.479Z,25.40
2022-12-13T10:04:35.475Z,26.00
2022-12-13T10:05:39.145Z,25.90
2022-12-13T10:06:35.431Z,25.60
2022-12-13T10:07:35.425Z,28.10
2022-12-13T10:08:35.435Z,25.40
2022-12-13T10:09:35.412Z,27.40
2022-12-13T10:10:35.396Z,25.70
2022-12-13T10:11:35.388Z,26.60
2022-12-13T10:12:35.375Z,25.60
2022-12-13T10:13:35.367Z,26.50
2022-12-13T10:14:35.360Z,27.00
2022-12-13T10:15:35.348Z,25.60
2022-12-13T10:16:36.467Z,27.90
2022-12-13T10:17:38.390Z,27.50
2022-12-13T10:18:35.321Z,26.00
2022-12-13T10:19:35.310Z,27.50
2022-12-13T10:20:35.299Z,25.50
2022-12-13T10:21:35.290Z,26.70
2022-12-13T10:22:35.280Z,27.90
2022-12-13T10:24:06.825Z,27.30
2022-12-13T10:24:37.678Z,28.10
2022-12-13T10:25:35.308Z,26.60
2022-12-13T10:26:35.286Z,27.80
2022-12-13T10:27:35.246Z,27.30
2022-12-13T10:28:35.248Z,27.00
2022-12-13T10:29:35.217Z,25.90
2022-12-13T10:30:35.212Z,27.40
2022-12-13T10:31:35.254Z,25.80
2022-12-13T10:32:37.408Z,27.50
2022-12-13T10:33:35.177Z,29.50
2022-12-13T10:34:35.168Z,28.10
2022-12-13T10:35:35.162Z,25.80
2022-12-13T10:36:35.154Z,26.70
2022-12-13T10:37:35.139Z,26.80
2022-12-13T10:38:35.129Z,27.30
2022-12-13T10:39:35.131Z,25.70
2022-12-13T10:40:35.143Z,25.80
2022-12-13T10:41:35.304Z,24.80
2022-12-13T10:42:35.091Z,25.30
2022-12-13T10:43:35.084Z,26.00
2022-12-13T10:44:35.077Z,24.10
2022-12-13T10:45:35.119Z,23.40
2022-12-13T10:46:38.599Z,26.20
2022-12-13T10:47:35.048Z,25.30
2022-12-13T10:48:38.670Z,25.80
2022-12-13T10:49:35.027Z,27.00
2022-12-13T10:50:35.061Z,25.10
2022-12-13T10:51:35.027Z,24.40
2022-12-13T10:52:35.004Z,24.30
2022-12-13T10:53:34.990Z,25.70
2022-12-13T10:54:38.243Z,25.20
2022-12-13T10:55:34.985Z,24.20
2022-12-13T10:56:34.980Z,25.50
2022-12-13T10:57:34.954Z,22.90
2022-12-13T10:58:34.942Z,25.40
2022-12-13T10:59:34.934Z,25.40
2022-12-13T11:00:34.922Z,24.60
2022-12-13T11:01:34.948Z,24.10
2022-12-13T11:02:35.026Z,23.00
2022-12-13T11:03:34.902Z,23.10
2022-12-13T11:04:34.889Z,23.00
2022-12-13T11:05:34.877Z,23.10
2022-12-13T11:06:34.871Z,24.90
2022-12-13T11:07:34.863Z,22.80
2022-12-13T11:08:34.845Z,23.70
2022-12-13T11:09:39.073Z,22.20
2022-12-13T11:10:34.828Z,22.70
2022-12-13T11:11:34.824Z,24.00
2022-12-13T11:12:34.829Z,22.80
2022-12-13T11:13:34.805Z,23.60
2022-12-13T11:14:37.674Z,22.40
2022-12-13T11:15:34.788Z,23.10
2022-12-13T11:16:34.831Z,23.50
2022-12-13T11:17:34.766Z,25.10
2022-12-13T11:18:34.753Z,22.70
2022-12-13T11:19:34.853Z,22.50
2022-12-13T11:20:34.736Z,21.60
2022-12-13T11:21:34.729Z,22.10
2022-12-13T11:22:34.721Z,22.30
2022-12-13T11:23:34.711Z,23.20
2022-12-13T11:24:34.699Z,21.50
2022-12-13T11:25:34.707Z,22.90
2022-12-13T11:26:34.687Z,21.80
2022-12-13T11:27:34.677Z,22.70
2022-12-13T11:28:34.679Z,21.50
2022-12-13T11:29:34.653Z,22.00
2022-12-13T11:30:34.645Z,21.70
2022-12-13T11:31:34.679Z,20.20
2022-12-13T11:32:34.624Z,21.60
2022-12-13T11:33:34.622Z,22.70
2022-12-13T11:34:34.606Z,21.30
2022-12-13T11:35:34.600Z,22.00
2022-12-13T11:36:34.588Z,21.70
2022-12-13T11:37:34.581Z,22.10
2022-12-13T11:38:34.568Z,22.00
2022-12-13T11:39:34.562Z,22.60
2022-12-13T11:40:34.560Z,22.40
2022-12-13T11:41:34.563Z,21.10
2022-12-13T11:42:34.558Z,21.80
2022-12-13T11:43:34.523Z,22.10
2022-12-13T11:44:34.533Z,21.40
2022-12-13T11:45:34.537Z,19.50
2022-12-13T11:46:34.900Z,20.80
2022-12-13T11:47:34.489Z,22.20
2022-12-13T11:48:34.476Z,21.10
2022-12-13T11:49:34.469Z,22.10
2022-12-13T11:50:34.654Z,21.00
2022-12-13T11:51:34.449Z,19.80
2022-12-13T11:52:34.439Z,21.10
2022-12-13T11:53:34.445Z,22.10
2022-12-13T11:54:34.427Z,21.60
2022-12-13T11:55:34.439Z,20.10
2022-12-13T11:56:34.411Z,18.60
2022-12-13T11:57:34.403Z,19.20
2022-12-13T11:59:40.312Z,20.30
2022-12-13T12:00:35.187Z,19.00
2022-12-13T12:01:38.255Z,21.90
2022-12-13T12:02:34.419Z,20.40
2022-12-13T12:03:34.369Z,20.10
2022-12-13T12:04:34.334Z,21.40
2022-12-13T12:05:34.324Z,20.60
2022-12-13T12:06:34.315Z,22.00
2022-12-13T12:07:34.403Z,19.10
2022-12-13T12:08:34.302Z,19.90
2022-12-13T12:09:34.287Z,20.10
2022-12-13T12:10:34.278Z,19.50
2022-12-13T12:11:34.270Z,19.40
2022-12-13T12:12:34.259Z,21.30
2022-12-13T12:13:34.269Z,19.50
2022-12-13T12:14:34.243Z,19.40
2022-12-13T12:15:41.404Z,20.10
2022-12-13T12:16:34.264Z,19.20
2022-12-13T12:17:37.922Z,18.30
2022-12-13T12:18:34.205Z,19.30
2022-12-13T12:19:34.205Z,20.30
2022-12-13T12:20:34.245Z,18.20
2022-12-13T12:22:04.967Z,18.60
2022-12-13T12:22:34.178Z,19.30
2022-12-13T12:23:38.570Z,19.30
2022-12-13T12:24:34.154Z,19.80
2022-12-13T12:25:34.144Z,18.80
2022-12-13T12:26:34.135Z,20.10
2022-12-13T12:27:34.130Z,19.90
2022-12-13T12:28:34.115Z,18.80
2022-12-13T12:29:34.109Z,17.20
2022-12-13T12:30:34.100Z,19.10
2022-12-13T12:31:34.147Z,17.80
2022-12-13T12:32:34.103Z,17.70
2022-12-13T12:33:34.070Z,18.30
2022-12-13T12:34:34.062Z,19.10
2022-12-13T12:35:34.052Z,19.10
2022-12-13T12:36:34.044Z,19.00
2022-12-13T12:37:34.038Z,18.20
2022-12-13T12:38:34.027Z,20.20
2022-12-13T12:39:34.026Z,18.80
2022-12-13T12:40:46.180Z,17.50
2022-12-13T12:41:33.999Z,18.30
2022-12-13T12:42:56.523Z,19.10
2022-12-13T12:43:34.652Z,17.90
2022-12-13T12:44:33.973Z,18.30
2022-12-13T12:45:57.250Z,18.80
2022-12-13T12:46:47.175Z,19.10
2022-12-13T12:48:42.730Z,19.20
2022-12-13T12:49:00.463Z,18.70
2022-12-13T12:49:34.010Z,16.70
2022-12-13T12:50:33.920Z,17.30
2022-12-13T12:51:34.259Z,16.90
2022-12-13T12:52:33.901Z,16.70
2022-12-13T12:53:33.896Z,17.00
2022-12-13T12:54:33.883Z,17.80
2022-12-13T12:55:33.877Z,17.50